createdAt,value
2022-07-27T00:01:25.768Z,1.73
2022-07-27T00:03:54.969Z,1.55
2022-07-27T00:06:24.119Z,1.88
2022-07-27T00:08:53.197Z,2.10
2022-07-27T00:11:23.664Z,2.08
2022-07-27T00:13:52.791Z,1.90
2022-07-27T00:16:22.035Z,2.08
2022-07-27T00:18:51.307Z,2.05
2022-07-27T00:21:20.401Z,1.73
2022-07-27T00:23:49.880Z,2.00
2022-07-27T00:26:19.092Z,2.03
2022-07-27T00:28:49.506Z,1.85
2022-07-27T00:31:19.259Z,1.73
2022-07-27T00:33:48.393Z,1.90
2022-07-27T00:36:17.445Z,2.00
2022-07-27T00:38:46.491Z,1.70
2022-07-27T00:41:15.604Z,1.88
2022-07-27T00:43:59.678Z,2.05
2022-07-27T00:46:30.274Z,2.35
2022-07-27T00:48:59.553Z,2.08
2022-07-27T00:51:28.729Z,2.03
2022-07-27T00:53:58.892Z,2.10
2022-07-27T00:56:28.063Z,1.80
2022-07-27T00:58:58.647Z,1.67
2022-07-27T01:01:27.798Z,1.60
2022-07-27T01:03:57.181Z,1.42
2022-07-27T01:06:28.006Z,1.70
2022-07-27T01:09:19.103Z,1.70
2022-07-27T01:11:49.336Z,1.90
2022-07-27T01:14:20.711Z,1.73
2022-07-27T01:16:57.668Z,1.75
2022-07-27T01:19:26.795Z,1.90
2022-07-27T01:21:57.232Z,1.70
2022-07-27T01:24:26.383Z,1.70
2022-07-27T01:26:55.470Z,1.42
2022-07-27T01:29:24.655Z,2.10
2022-07-27T01:31:53.807Z,1.80
2022-07-27T01:34:22.875Z,2.10
2022-07-27T01:36:52.054Z,1.95
2022-07-27T01:39:22.545Z,1.90
2022-07-27T01:41:51.671Z,2.00
2022-07-27T01:44:20.921Z,1.90
2022-07-27T01:46:50.207Z,2.15
2022-07-27T01:49:19.654Z,1.70
2022-07-27T01:51:48.707Z,2.05
2022-07-27T01:54:18.120Z,2.08
2022-07-27T01:56:48.691Z,1.92
2022-07-27T01:59:17.807Z,1.70
2022-07-27T02:01:47.593Z,1.90
2022-07-27T02:04:18.466Z,1.88
2022-07-27T02:06:47.584Z,1.77
2022-07-27T02:09:16.667Z,1.95
2022-07-27T02:12:02.974Z,1.90
2022-07-27T02:14:33.563Z,1.90
2022-07-27T02:17:02.718Z,2.10
2022-07-27T02:19:32.015Z,1.70
2022-07-27T02:22:01.078Z,2.00
2022-07-27T02:24:30.135Z,2.00
2022-07-27T02:26:59.202Z,1.83
2022-07-27T02:29:28.264Z,1.77
2022-07-27T02:31:58.886Z,1.85
2022-07-27T02:34:28.110Z,1.95
2022-07-27T02:36:57.170Z,1.90
2022-07-27T02:39:26.200Z,2.38
2022-07-27T02:41:55.312Z,2.17
2022-07-27T02:44:24.509Z,2.40
2022-07-27T02:46:53.581Z,1.83
2022-07-27T02:49:24.407Z,1.67
2022-07-27T02:51:54.597Z,2.22
2022-07-27T02:54:24.671Z,2.00
2022-07-27T02:56:54.967Z,2.20
2022-07-27T02:59:24.457Z,1.90
2022-07-27T03:01:53.544Z,1.85
2022-07-27T03:04:24.359Z,2.58
2022-07-27T03:06:53.509Z,2.30
2022-07-27T03:09:33.197Z,2.00
2022-07-27T03:12:02.673Z,2.42
2022-07-27T03:14:31.862Z,2.00
2022-07-27T03:17:04.133Z,2.15
2022-07-27T03:19:34.625Z,2.42
2022-07-27T03:22:03.841Z,2.33
2022-07-27T03:24:32.928Z,2.15
2022-07-27T03:27:02.050Z,2.20
2022-07-27T03:29:31.081Z,1.95
2022-07-27T03:32:00.154Z,1.92
2022-07-27T03:34:29.247Z,2.13
2022-07-27T03:36:59.712Z,2.50
2022-07-27T03:39:28.854Z,2.30
2022-07-27T03:41:57.911Z,2.63
2022-07-27T03:44:26.982Z,2.45
2022-07-27T03:46:56.095Z,2.65
2022-07-27T03:49:25.246Z,2.58
2022-07-27T03:51:54.406Z,2.50
2022-07-27T03:54:24.858Z,2.25
2022-07-27T03:56:53.898Z,2.17
2022-07-27T03:59:23.165Z,2.55
2022-07-27T04:01:52.198Z,2.40
2022-07-27T04:04:21.209Z,2.65
2022-07-27T04:06:50.293Z,2.47
2022-07-27T04:09:20.468Z,2.47
2022-07-27T04:11:51.753Z,2.67
2022-07-27T04:14:24.797Z,2.67
2022-07-27T04:16:54.021Z,2.95
2022-07-27T04:19:23.104Z,2.90
2022-07-27T04:21:52.194Z,2.70
2022-07-27T04:24:21.295Z,2.70
2022-07-27T04:26:51.766Z,2.45
2022-07-27T04:29:21.598Z,3.13
2022-07-27T04:31:50.989Z,2.67
2022-07-27T04:34:21.768Z,2.45
2022-07-27T04:36:51.491Z,2.80
2022-07-27T04:39:20.557Z,2.80
2022-07-27T04:41:49.584Z,2.83
2022-07-27T04:44:20.088Z,2.90
2022-07-27T04:46:49.247Z,3.63
2022-07-27T04:49:18.397Z,2.90
2022-07-27T04:51:47.848Z,2.80
2022-07-27T04:54:16.903Z,2.88
2022-07-27T04:56:46.016Z,2.53
2022-07-27T04:59:15.403Z,2.97
2022-07-27T05:01:46.057Z,2.80
2022-07-27T05:04:15.256Z,2.70
2022-07-27T05:06:44.376Z,2.63
2022-07-27T05:09:13.625Z,2.70
2022-07-27T05:11:44.241Z,3.10
2022-07-27T05:14:21.894Z,3.15
2022-07-27T05:16:52.537Z,3.03
2022-07-27T05:19:22.405Z,2.90
2022-07-27T05:22:09.230Z,2.88
2022-07-27T05:24:38.342Z,3.50
2022-07-27T05:27:07.643Z,3.50
2022-07-27T05:29:36.709Z,3.00
2022-07-27T05:32:08.008Z,2.92
2022-07-27T05:37:06.098Z,3.08
2022-07-27T05:39:35.535Z,3.10
2022-07-27T05:42:04.916Z,3.00
2022-07-27T05:44:33.930Z,3.30
2022-07-27T05:47:03.053Z,3.08
2022-07-27T05:49:36.747Z,3.25
2022-07-27T05:52:06.367Z,2.80
2022-07-27T05:54:35.454Z,3.08
2022-07-27T05:57:04.612Z,3.13
2022-07-27T05:59:33.695Z,3.20
2022-07-27T06:02:03.651Z,3.28
2022-07-27T06:04:32.989Z,3.22
2022-07-27T06:07:32.545Z,3.55
2022-07-27T06:10:02.006Z,3.28
2022-07-27T06:12:31.117Z,3.53
2022-07-27T06:15:00.151Z,3.63
2022-07-27T06:17:29.307Z,3.90
2022-07-27T06:19:58.379Z,3.40
2022-07-27T06:22:28.751Z,3.47
2022-07-27T06:24:57.811Z,3.30
2022-07-27T06:27:29.574Z,3.70
2022-07-27T06:29:59.489Z,3.13
2022-07-27T06:32:31.271Z,3.45
2022-07-27T06:35:01.603Z,3.50
2022-07-27T06:37:33.346Z,3.33
2022-07-27T06:40:03.126Z,2.92
2022-07-27T06:42:32.253Z,2.90
2022-07-27T06:45:01.334Z,2.95
2022-07-27T06:47:30.389Z,2.60
2022-07-27T06:49:59.606Z,2.40
2022-07-27T06:52:28.658Z,2.47
2022-07-27T06:54:59.207Z,2.35
2022-07-27T06:57:28.302Z,2.40
2022-07-27T06:59:57.337Z,1.90
2022-07-27T07:02:26.380Z,1.90
2022-07-27T07:04:55.423Z,1.70
2022-07-27T07:07:24.500Z,1.50
2022-07-27T07:09:53.742Z,2.13
2022-07-27T07:12:25.743Z,1.70
2022-07-27T07:14:54.855Z,1.58
2022-07-27T07:17:23.880Z,1.40
2022-07-27T07:19:53.026Z,1.73
2022-07-27T07:22:22.143Z,1.40
2022-07-27T07:24:51.195Z,1.60
2022-07-27T07:27:23.481Z,1.30
2022-07-27T07:29:54.030Z,1.10
2022-07-27T07:32:27.784Z,1.00
2022-07-27T07:35:01.095Z,1.20
2022-07-27T07:37:33.667Z,1.35
2022-07-27T07:40:25.291Z,1.35
2022-07-27T07:42:55.847Z,1.30
2022-07-27T07:45:26.650Z,1.20
2022-07-27T07:47:56.680Z,1.60
2022-07-27T07:50:26.608Z,1.38
2022-07-27T07:52:56.376Z,0.90
2022-07-27T07:55:27.637Z,1.30
2022-07-27T07:57:59.955Z,0.93
2022-07-27T08:00:30.880Z,1.40
2022-07-27T08:03:00.127Z,1.08
2022-07-27T08:05:29.302Z,1.10
2022-07-27T08:07:58.388Z,0.85
2022-07-27T08:10:28.197Z,1.50
2022-07-27T08:12:57.976Z,1.52
2022-07-27T08:15:29.972Z,1.08
2022-07-27T08:18:06.564Z,1.00
2022-07-27T08:20:36.274Z,0.90
2022-07-27T08:23:06.336Z,1.20
2022-07-27T08:25:35.462Z,1.25
2022-07-27T08:28:04.737Z,0.73
2022-07-27T08:30:36.811Z,0.90
2022-07-27T08:33:07.498Z,0.90
2022-07-27T08:35:36.902Z,1.10
2022-07-27T08:38:07.528Z,1.00
2022-07-27T08:40:40.606Z,1.27
2022-07-27T08:43:12.986Z,1.00
2022-07-27T08:45:44.274Z,0.90
2022-07-27T08:48:16.458Z,0.85
2022-07-27T08:50:49.500Z,0.90
2022-07-27T08:53:19.157Z,1.00
2022-07-27T08:55:48.566Z,0.80
2022-07-27T08:58:18.552Z,1.02
2022-07-27T09:00:50.055Z,0.98
2022-07-27T09:03:22.275Z,1.20
2022-07-27T09:05:54.196Z,0.95
2022-07-27T09:08:25.282Z,1.23
2022-07-27T09:10:55.704Z,1.15
2022-07-27T09:13:27.377Z,1.23
2022-07-27T09:18:49.287Z,1.17
2022-07-27T09:21:21.154Z,1.30
2022-07-27T09:23:52.098Z,1.20
2022-07-27T09:26:33.222Z,1.20
2022-07-27T09:31:33.268Z,0.80
2022-07-27T09:34:04.523Z,1.00
2022-07-27T09:36:33.719Z,1.10
2022-07-27T09:39:06.744Z,1.05
2022-07-27T09:41:43.843Z,0.80
2022-07-27T09:44:32.787Z,1.13
2022-07-27T09:47:22.816Z,1.02
2022-07-27T09:49:53.660Z,1.05
2022-07-27T09:52:28.217Z,0.90
2022-07-27T09:55:04.977Z,1.20
2022-07-27T09:57:52.623Z,1.35
2022-07-27T10:00:22.684Z,1.10
2022-07-27T10:02:52.958Z,1.13
2022-07-27T10:05:24.477Z,1.15
2022-07-27T10:07:55.536Z,1.20
2022-07-27T10:10:25.413Z,1.23
2022-07-27T10:12:55.566Z,1.10
2022-07-27T10:15:26.029Z,1.13
2022-07-27T10:18:06.456Z,1.67
2022-07-27T10:20:42.388Z,1.23
2022-07-27T10:23:30.025Z,0.82
2022-07-27T10:26:20.567Z,1.00
2022-07-27T10:28:54.800Z,1.20
2022-07-27T10:31:26.154Z,1.00
2022-07-27T10:33:56.681Z,1.23
2022-07-27T10:36:47.490Z,1.00
2022-07-27T10:39:44.270Z,1.02
2022-07-27T10:42:23.146Z,1.05
2022-07-27T10:45:00.938Z,1.10
2022-07-27T10:47:32.189Z,1.00
2022-07-27T10:50:25.015Z,1.10
2022-07-27T10:52:57.768Z,1.23
2022-07-27T10:55:47.309Z,1.10
2022-07-27T10:58:45.848Z,1.20
2022-07-27T11:01:21.788Z,1.25
2022-07-27T11:03:55.384Z,1.05
2022-07-27T11:06:47.819Z,0.80
2022-07-27T11:10:02.321Z,0.80
2022-07-27T11:12:12.126Z,1.00
2022-07-27T11:14:49.454Z,0.85
2022-07-27T11:20:11.182Z,1.10
2022-07-27T11:23:26.453Z,0.90
2022-07-27T11:25:33.771Z,1.00
2022-07-27T11:28:08.372Z,1.00
2022-07-27T11:30:37.496Z,1.00
2022-07-27T11:33:07.413Z,0.98
2022-07-27T11:35:36.623Z,0.90
2022-07-27T11:38:07.819Z,0.70
2022-07-27T11:41:05.891Z,0.95
2022-07-27T11:43:42.055Z,0.90
2022-07-27T11:46:23.046Z,0.80
2022-07-27T11:49:10.847Z,0.77
2022-07-27T11:51:43.857Z,0.95
2022-07-27T11:54:19.189Z,0.80
2022-07-27T11:56:51.392Z,1.20
2022-07-27T11:59:21.374Z,0.90
2022-07-27T12:01:53.174Z,0.93
2022-07-27T12:04:27.574Z,1.00
2022-07-27T12:07:01.043Z,0.95
2022-07-27T12:09:38.106Z,0.95
2022-07-27T12:12:15.505Z,0.93
2022-07-27T12:14:48.011Z,0.80
2022-07-27T12:17:20.437Z,0.93
2022-07-27T12:19:55.686Z,0.90
2022-07-27T12:22:36.066Z,0.88
2022-07-27T12:25:16.106Z,0.88
2022-07-27T12:27:58.952Z,0.90
2022-07-27T12:30:33.440Z,0.82
2022-07-27T12:33:03.418Z,1.00
2022-07-27T12:35:38.114Z,1.00
2022-07-27T12:38:10.567Z,1.10
2022-07-27T12:40:47.104Z,1.10
2022-07-27T12:43:19.730Z,1.00
2022-07-27T12:45:50.011Z,1.05
2022-07-27T12:48:20.700Z,1.00
2022-07-27T12:50:58.365Z,1.27
2022-07-27T12:53:27.638Z,1.40
2022-07-27T12:56:00.298Z,1.27
2022-07-27T12:58:30.898Z,1.25
2022-07-27T13:01:00.100Z,1.83
2022-07-27T13:03:29.261Z,1.02
2022-07-27T13:05:58.423Z,1.20
2022-07-27T13:08:27.475Z,1.50
2022-07-27T13:10:59.900Z,1.20
2022-07-27T13:13:30.811Z,1.50
2022-07-27T13:16:00.008Z,0.90
2022-07-27T13:18:29.146Z,1.33
2022-07-27T13:20:58.287Z,1.20
2022-07-27T13:23:27.604Z,1.10
2022-07-27T13:25:56.671Z,1.02
2022-07-27T13:28:25.672Z,1.00
2022-07-27T13:30:57.018Z,1.20
2022-07-27T13:36:00.277Z,0.90
2022-07-27T13:40:58.792Z,1.38
2022-07-27T13:43:27.868Z,0.90
2022-07-27T13:45:58.400Z,1.00
2022-07-27T13:48:28.066Z,1.10
2022-07-27T13:50:57.157Z,0.98
2022-07-27T13:53:26.243Z,0.90
2022-07-27T13:55:57.085Z,0.93
2022-07-27T13:58:26.202Z,0.77
2022-07-27T14:00:55.489Z,0.90
2022-07-27T14:03:26.404Z,0.90
2022-07-27T14:05:57.510Z,1.00
2022-07-27T14:08:26.885Z,1.10
2022-07-27T14:10:56.103Z,1.10
2022-07-27T14:13:26.608Z,0.95
2022-07-27T14:15:55.946Z,1.07
2022-07-27T14:18:29.407Z,1.10
2022-07-27T14:21:06.586Z,0.98
2022-07-27T14:23:36.819Z,1.10
2022-07-27T14:26:08.574Z,0.90
2022-07-27T14:28:38.819Z,1.00
2022-07-27T14:31:09.715Z,0.90
2022-07-27T14:33:40.957Z,0.80
2022-07-27T14:36:10.929Z,1.00
2022-07-27T14:38:40.122Z,0.90
2022-07-27T14:41:09.204Z,0.82
2022-07-27T14:43:38.429Z,1.00
2022-07-27T14:46:07.649Z,0.90
2022-07-27T14:49:04.582Z,1.02
2022-07-27T14:51:27.317Z,0.90
2022-07-27T14:53:56.470Z,1.10
2022-07-27T14:56:25.631Z,0.70
2022-07-27T14:58:54.851Z,0.90
2022-07-27T15:01:23.976Z,0.70
2022-07-27T15:03:55.409Z,0.52
2022-07-27T15:08:54.873Z,0.70
2022-07-27T15:11:23.946Z,0.63
2022-07-27T15:13:53.065Z,0.73
2022-07-27T15:16:22.200Z,0.75
2022-07-27T15:18:51.465Z,0.60
2022-07-27T15:21:20.567Z,0.75
2022-07-27T15:23:49.575Z,0.57
2022-07-27T15:26:20.107Z,0.70
2022-07-27T15:28:49.166Z,0.70
2022-07-27T15:31:18.330Z,0.55
2022-07-27T15:33:47.508Z,0.70
2022-07-27T15:36:33.402Z,0.68
2022-07-27T15:39:05.429Z,0.68
2022-07-27T15:41:37.263Z,0.73
2022-07-27T15:44:06.980Z,0.70
2022-07-27T15:46:36.263Z,0.68
2022-07-27T15:49:05.550Z,0.70
2022-07-27T15:51:34.690Z,0.65
2022-07-27T15:54:03.806Z,0.70
2022-07-27T15:56:32.979Z,0.80
2022-07-27T15:59:03.440Z,1.00
2022-07-27T16:01:35.208Z,0.63
2022-07-27T16:04:05.954Z,0.80
2022-07-27T16:06:39.228Z,0.80
2022-07-27T16:09:10.347Z,0.88
2022-07-27T16:11:40.970Z,0.65
2022-07-27T16:14:11.538Z,0.68
2022-07-27T16:16:40.671Z,0.60
2022-07-27T16:19:14.165Z,0.60
2022-07-27T16:21:54.089Z,0.63
2022-07-27T16:24:25.742Z,0.70
2022-07-27T16:26:55.593Z,0.80
2022-07-27T16:29:27.441Z,0.75
2022-07-27T16:31:59.058Z,0.77
2022-07-27T16:34:28.836Z,0.70
2022-07-27T16:36:58.472Z,0.90
2022-07-27T16:39:27.963Z,0.90
2022-07-27T16:41:58.526Z,0.93
2022-07-27T16:44:29.259Z,1.00
2022-07-27T16:46:58.373Z,2.60
2022-07-27T16:49:33.692Z,1.17
2022-07-27T16:52:06.226Z,2.33
2022-07-27T16:54:39.313Z,2.22
2022-07-27T16:57:09.448Z,1.35
2022-07-27T16:59:41.691Z,1.20
2022-07-27T17:02:11.360Z,1.13
2022-07-27T17:04:40.611Z,1.10
2022-07-27T17:07:12.452Z,0.80
2022-07-27T17:09:42.537Z,1.20
2022-07-27T17:12:11.566Z,0.95
2022-07-27T17:14:48.072Z,1.23
2022-07-27T17:17:17.206Z,0.97
2022-07-27T17:19:46.294Z,1.15
2022-07-27T17:22:15.377Z,1.10
2022-07-27T17:24:44.555Z,1.27
2022-07-27T17:27:13.597Z,1.00
2022-07-27T17:29:43.387Z,1.00
2022-07-27T17:32:13.895Z,1.20
2022-07-27T17:34:45.555Z,1.23
2022-07-27T17:37:15.347Z,1.30
2022-07-27T17:39:44.512Z,1.13
2022-07-27T17:42:13.593Z,1.17
2022-07-27T17:44:42.838Z,1.20
2022-07-27T17:47:13.492Z,1.10
2022-07-27T17:52:12.921Z,1.35
2022-07-27T17:54:42.025Z,1.45
2022-07-27T17:57:11.022Z,1.40
2022-07-27T17:59:41.062Z,1.17
2022-07-27T18:02:10.437Z,1.50
2022-07-27T18:04:40.989Z,1.40
2022-07-27T18:07:10.036Z,1.30
2022-07-27T18:09:39.211Z,1.15
2022-07-27T18:12:08.756Z,1.00
2022-07-27T18:14:58.599Z,1.10
2022-07-27T18:17:27.784Z,1.20
2022-07-27T18:19:58.201Z,1.00
2022-07-27T18:22:27.591Z,1.10
2022-07-27T18:24:57.502Z,1.20
2022-07-27T18:27:26.637Z,1.08
2022-07-27T18:29:55.682Z,1.08
2022-07-27T18:32:24.721Z,1.00
2022-07-27T18:34:55.393Z,1.05
2022-07-27T18:37:26.475Z,1.05
2022-07-27T18:39:55.595Z,1.00
2022-07-27T18:42:24.631Z,1.10
2022-07-27T18:44:53.776Z,1.13
2022-07-27T18:47:22.921Z,1.27
2022-07-27T18:49:51.969Z,1.08
2022-07-27T18:52:21.056Z,1.48
2022-07-27T18:54:51.562Z,1.40
2022-07-27T18:57:20.739Z,1.30
2022-07-27T18:59:50.124Z,1.20
2022-07-27T19:02:20.347Z,1.20
2022-07-27T19:04:50.661Z,1.17
2022-07-27T19:07:20.436Z,1.40
2022-07-27T19:09:52.059Z,1.73
2022-07-27T19:12:21.176Z,1.37
2022-07-27T19:14:51.724Z,1.60
2022-07-27T19:17:21.196Z,1.60
2022-07-27T19:19:50.403Z,1.17
2022-07-27T19:22:20.316Z,1.35
2022-07-27T19:24:54.769Z,1.40
2022-07-27T19:27:25.058Z,1.23
2022-07-27T19:29:54.266Z,1.08
2022-07-27T19:32:26.876Z,1.15
2022-07-27T19:34:56.122Z,1.38
2022-07-27T19:37:29.717Z,1.60
2022-07-27T19:40:14.330Z,1.90
2022-07-27T19:42:49.393Z,1.73
2022-07-27T19:45:18.501Z,1.13
2022-07-27T19:47:47.559Z,1.80
2022-07-27T19:50:16.735Z,1.35
2022-07-27T19:52:45.829Z,1.60
2022-07-27T19:55:17.047Z,1.50
2022-07-27T19:57:46.430Z,1.25
2022-07-27T20:00:16.571Z,1.23
2022-07-27T20:02:46.096Z,1.50
2022-07-27T20:05:16.092Z,1.50
2022-07-27T20:07:45.812Z,1.60
2022-07-27T20:10:16.686Z,1.40
2022-07-27T20:12:45.764Z,1.48
2022-07-27T20:15:14.890Z,1.45
2022-07-27T20:17:44.097Z,1.65
2022-07-27T20:20:13.726Z,1.17
2022-07-27T20:22:42.796Z,1.63
2022-07-27T20:25:12.073Z,1.40
2022-07-27T20:27:42.663Z,1.80
2022-07-27T20:30:14.570Z,1.67
2022-07-27T20:32:44.589Z,1.40
2022-07-27T20:35:13.922Z,1.02
2022-07-27T20:37:43.147Z,1.45
2022-07-27T20:40:13.014Z,1.30
2022-07-27T20:42:44.502Z,1.40
2022-07-27T20:45:14.993Z,1.60
2022-07-27T20:47:44.396Z,1.30
2022-07-27T20:50:15.406Z,1.55
2022-07-27T20:52:44.576Z,1.70
2022-07-27T20:55:13.826Z,1.10
2022-07-27T20:57:44.490Z,1.30
2022-07-27T21:00:14.665Z,1.70
2022-07-27T21:02:44.296Z,1.88
2022-07-27T21:05:13.470Z,1.67
2022-07-27T21:07:42.496Z,1.40
2022-07-27T21:10:11.935Z,1.40
2022-07-27T21:12:41.040Z,1.42
2022-07-27T21:15:13.622Z,1.70
2022-07-27T21:17:43.237Z,1.85
2022-07-27T21:20:14.978Z,2.60
2022-07-27T21:22:44.443Z,2.92
2022-07-27T21:25:15.329Z,2.08
2022-07-27T21:27:45.089Z,1.92
2022-07-27T21:30:17.578Z,1.52
2022-07-27T21:32:46.691Z,1.50
2022-07-27T21:35:15.832Z,1.42
2022-07-27T21:37:48.249Z,1.50
2022-07-27T21:40:17.382Z,1.70
2022-07-27T21:42:46.419Z,1.50
2022-07-27T21:45:15.490Z,2.10
2022-07-27T21:47:46.033Z,1.65
2022-07-27T21:50:15.237Z,1.40
2022-07-27T21:52:45.237Z,1.48
2022-07-27T21:55:14.341Z,1.60
2022-07-27T21:57:51.734Z,1.70
2022-07-27T22:00:24.961Z,1.50
2022-07-27T22:02:55.457Z,1.60
2022-07-27T22:05:24.740Z,1.60
2022-07-27T22:07:54.122Z,1.73
2022-07-27T22:10:23.842Z,1.77
2022-07-27T22:12:52.979Z,1.92
2022-07-27T22:15:22.141Z,1.58
2022-07-27T22:17:51.561Z,1.55
2022-07-27T22:20:22.663Z,1.58
2022-07-27T22:22:52.020Z,1.90
2022-07-27T22:25:21.118Z,2.03
2022-07-27T22:27:50.200Z,1.95
2022-07-27T22:30:19.538Z,1.90
2022-07-27T22:32:48.606Z,1.67
2022-07-27T22:35:17.731Z,1.95
2022-07-27T22:37:48.193Z,1.80
2022-07-27T22:40:17.797Z,1.83
2022-07-27T22:42:47.094Z,1.98
2022-07-27T22:45:16.454Z,1.83
2022-07-27T22:47:45.520Z,2.00
2022-07-27T22:50:18.244Z,1.90
2022-07-27T22:52:51.315Z,2.30
2022-07-27T22:55:20.484Z,2.17
2022-07-27T22:57:50.628Z,2.00
2022-07-27T23:00:19.984Z,1.85
2022-07-27T23:02:50.306Z,1.67
2022-07-27T23:05:19.503Z,1.80
2022-07-27T23:07:50.404Z,1.80
2022-07-27T23:10:33.439Z,1.70
2022-07-27T23:13:02.633Z,1.60
2022-07-27T23:15:31.958Z,1.80
2022-07-27T23:18:01.126Z,2.03
2022-07-27T23:20:30.206Z,2.05
2022-07-27T23:23:01.191Z,1.95
2022-07-27T23:25:36.272Z,2.33
2022-07-27T23:28:06.104Z,2.10
2022-07-27T23:30:35.222Z,2.20
2022-07-27T23:33:04.488Z,2.72
2022-07-27T23:35:34.074Z,2.72
2022-07-27T23:38:04.847Z,2.88
2022-07-27T23:40:34.055Z,2.30
2022-07-27T23:43:03.507Z,2.20
2022-07-27T23:45:32.668Z,2.15
2022-07-27T23:48:01.928Z,2.00
2022-07-27T23:50:31.174Z,1.90
2022-07-27T23:53:00.234Z,2.15
2022-07-27T23:55:30.731Z,1.73
2022-07-27T23:57:59.836Z,2.20
